Park Valley, Utah
Current Conditions -  °F | °C
As of 3:29 AM on Sunday 21 Dec 2014 (Local Time) from KBYI Reporting Station
Light Rain Light Rain  
Wind Chill: -1°   Ceiling: 3000
Heat Index:   Visibility: 10mi
Dew Point:   Wind: 20mph
Humidity: 89%   Direction: 200°SSW
Pressure: 29.88"   Gusts: 25mph
Location:  41.82°N, 113.33°W
Report Text: KBYI 211029Z AUTO 20017G22KT 10SM -RA OVC030 04/02 A2988 RMK AO2 P0004 T00390022
Loading
Personal Weather Stations






























Interactive Weather Map New forecast layout! Learn more

10-Day Weather Forecast

Advertisements
Track Severe Weather on mobile